Time;durP1;ratioP1;P1;durP2;ratioP2;P2;SDS_P1;SDS_P2;PMS_P1;PMS_P2;Temp;Humidity;BMP_temperature;BMP_pressure;BME280_temperature;BME280_humidity;BME280_pressure;Samples;Min_cycle;Max_cycle;Signal;HPM_P1;HPM_P2
2020/12/19 00:01:53;;;;;;;69.80;23.65;;;;;;;4.61;95.97;98111.16;5084778;28;20031;-61
2020/12/19 00:04:18;;;;;;;77.38;23.80;;;;;;;4.97;96.81;98179.00;5084594;28;20029;-62
2020/12/19 00:06:44;;;;;;;66.32;22.60;;;;;;;4.94;96.68;98154.91;5084550;28;20506;-61
2020/12/19 00:09:11;;;;;;;67.45;21.17;;;;;;;5.07;96.63;98187.03;5084608;28;20407;-61
2020/12/19 00:11:36;;;;;;;79.07;22.48;;;;;;;4.53;96.00;98092.66;5082870;28;20625;-62
2020/12/19 00:14:01;;;;;;;63.22;21.00;;;;;;;5.12;95.44;98179.47;5082913;28;20047;-62
2020/12/19 00:16:29;;;;;;;81.55;23.40;;;;;;;5.17;95.02;98195.06;5084324;28;20079;-61
2020/12/19 00:18:55;;;;;;;77.60;23.25;;;;;;;4.50;95.92;98076.78;5082792;28;20123;-61
2020/12/19 00:21:21;;;;;;;77.85;24.70;;;;;;;4.83;96.63;98137.03;5082602;28;20127;-62
2020/12/19 00:23:46;;;;;;;60.17;22.13;;;;;;;4.77;96.27;98136.34;5082805;28;20531;-60
2020/12/19 00:26:12;;;;;;;69.88;23.60;;;;;;;4.33;96.15;98049.16;5083951;28;20064;-61
2020/12/19 00:28:37;;;;;;;61.63;20.83;;;;;;;4.99;95.12;98169.34;5084265;28;20028;-61
2020/12/19 00:31:03;;;;;;;54.53;18.45;;;;;;;4.59;93.53;98091.41;5084056;28;20056;-62
2020/12/19 00:33:28;;;;;;;45.38;17.70;;;;;;;4.28;92.29;98041.03;5084125;28;20509;-62
2020/12/19 00:35:53;;;;;;;44.88;16.55;;;;;;;4.98;93.09;98158.69;5082917;28;20038;-61
2020/12/19 00:38:19;;;;;;;45.50;16.75;;;;;;;4.76;92.47;98144.88;5083637;28;20371;-61
2020/12/19 00:40:44;;;;;;;50.22;15.77;;;;;;;4.98;93.41;98175.16;5084394;28;20497;-61
2020/12/19 00:43:10;;;;;;;56.28;17.60;;;;;;;5.11;92.91;98179.78;5084130;28;20036;-61
2020/12/19 00:45:35;;;;;;;55.10;19.15;;;;;;;4.92;93.06;98148.91;5084297;28;20063;-61
2020/12/19 00:48:01;;;;;;;63.70;19.95;;;;;;;5.01;93.91;98180.03;5082647;28;20032;-61
2020/12/19 00:50:27;;;;;;;61.20;20.30;;;;;;;4.82;93.55;98132.66;5084056;28;20131;-61
2020/12/19 00:52:52;;;;;;;80.60;22.98;;;;;;;5.01;94.39;98169.03;5084278;28;20083;-61
2020/12/19 00:55:17;;;;;;;86.78;26.98;;;;;;;4.66;94.71;98124.72;5083632;28;20036;-62
2020/12/19 00:57:43;;;;;;;79.57;24.42;;;;;;;5.08;95.04;98175.75;5085001;28;20024;-61
2020/12/19 01:00:09;;;;;;;85.63;24.70;;;;;;;4.73;94.99;98112.56;5067651;28;20051;-61
2020/12/19 01:02:36;;;;;;;95.00;25.48;;;;;;;4.78;94.83;98115.16;5067633;28;20089;-61
2020/12/19 01:05:11;;;;;;;76.88;22.98;;;;;;;0.27;94.15;97383.41;5067697;28;20044;-61
2020/12/19 01:07:40;;;;;;;79.80;22.92;;;;;;;4.77;95.31;98124.53;5067552;28;20066;-60
2020/12/19 01:10:08;;;;;;;76.32;24.70;;;;;;;5.06;95.37;98157.97;5067490;28;20040;-61
2020/12/19 01:12:33;;;;;;;76.85;24.35;;;;;;;5.27;95.28;98165.44;5067716;28;20032;-62
2020/12/19 01:14:59;;;;;;;53.47;18.38;;;;;;;5.29;94.45;98165.13;5067203;28;20035;-61
2020/12/19 01:17:24;;;;;;;59.63;19.05;;;;;;;4.72;92.52;98075.22;5065433;28;20090;-61
2020/12/19 01:19:50;;;;;;;72.90;29.05;;;;;;;4.83;93.66;98090.38;5067109;28;20098;-61
2020/12/19 01:22:15;;;;;;;74.90;23.88;;;;;;;5.22;93.41;98145.50;5066920;28;20032;-61
2020/12/19 01:24:41;;;;;;;83.18;26.55;;;;;;;4.81;94.19;98092.59;5066979;28;20086;-61
2020/12/19 01:27:07;;;;;;;84.35;29.30;;;;;;;4.99;94.05;98099.91;5064986;28;20029;-61
2020/12/19 01:29:33;;;;;;;78.40;26.67;;;;;;;5.07;93.45;98112.91;5067091;28;20040;-60
2020/12/19 01:31:58;;;;;;;78.43;25.73;;;;;;;4.77;93.39;98067.72;5066699;28;20027;-61
2020/12/19 01:34:24;;;;;;;76.63;23.92;;;;;;;4.80;94.33;98096.47;5065284;28;20123;-61
2020/12/19 01:36:49;;;;;;;79.15;26.17;;;;;;;4.96;94.52;98100.50;5067002;28;20041;-62
2020/12/19 01:39:15;;;;;;;74.65;23.98;;;;;;;5.06;94.21;98127.75;5066934;28;20032;-60
2020/12/19 01:41:59;;;;;;;68.47;20.60;;;;;;;5.18;93.70;98130.75;3734937;28;10003451;-60
2020/12/19 01:44:24;;;;;;;67.10;22.75;;;;;;;5.19;93.55;98140.63;4704950;28;10001293;-61
2020/12/19 01:46:53;;;;;;;60.42;19.88;;;;;;;5.21;93.78;98150.19;5066659;28;20116;-62
2020/12/19 01:49:19;;;;;;;52.53;18.83;;;;;;;4.74;95.01;98089.47;5066777;28;20033;-61
2020/12/19 01:51:47;;;;;;;54.13;17.73;;;;;;;4.81;94.38;98087.09;5066383;28;20045;-60
2020/12/19 01:54:13;;;;;;;60.08;18.80;;;;;;;4.72;94.64;98078.81;5071781;28;20528;-62
2020/12/19 01:56:38;;;;;;;55.00;17.95;;;;;;;5.18;94.70;98152.75;5086647;28;20028;-61
2020/12/19 01:59:04;;;;;;;55.15;18.35;;;;;;;4.68;94.78;98082.47;5086782;28;20443;-61
2020/12/19 02:01:30;;;;;;;57.00;18.73;;;;;;;4.80;94.85;98088.22;5043555;28;20046;-61
2020/12/19 02:03:55;;;;;;;53.60;18.48;;;;;;;4.79;94.57;98083.88;5086513;28;20059;-60
2020/12/19 02:06:23;;;;;;;42.55;15.20;;;;;;;5.15;94.37;98139.63;5086228;28;20027;-61
2020/12/19 02:08:51;;;;;;;35.28;13.43;;;;;;;4.84;91.39;98070.03;5085758;28;20028;-61
2020/12/19 02:11:16;;;;;;;36.38;13.38;;;;;;;5.43;90.89;98155.72;5086208;28;20407;-61
2020/12/19 02:13:42;;;;;;;31.98;13.25;;;;;;;5.34;91.38;98140.28;5067938;28;20043;-62
2020/12/19 02:16:07;;;;;;;49.25;19.98;;;;;;;5.30;91.73;98139.28;5086460;28;20085;-61
2020/12/19 02:18:33;;;;;;;33.05;13.57;;;;;;;5.04;91.58;98127.25;5086276;28;20387;-61
2020/12/19 02:20:58;;;;;;;34.63;13.73;;;;;;;5.38;91.09;98163.25;5086290;28;20046;-62
2020/12/19 02:23:23;;;;;;;37.22;14.32;;;;;;;5.32;91.41;98148.03;5086251;28;20236;-61
2020/12/19 02:25:49;;;;;;;40.17;14.73;;;;;;;5.42;91.08;98153.28;5086154;28;20403;-61
2020/12/19 02:28:15;;;;;;;42.17;15.73;;;;;;;5.25;90.97;98117.44;5086547;28;20410;-61
2020/12/19 02:30:40;;;;;;;40.58;16.48;;;;;;;5.28;91.79;98130.53;5085777;28;20418;-61
2020/12/19 02:33:06;;;;;;;50.42;18.55;;;;;;;4.93;92.18;98085.47;5086209;28;20107;-60
2020/12/19 02:35:31;;;;;;;44.03;17.70;;;;;;;5.17;92.53;98118.97;5086012;28;20445;-61
2020/12/19 02:38:00;;;;;;;50.42;18.77;;;;;;;5.43;92.83;98149.41;5086124;28;20034;-60
2020/12/19 02:40:25;;;;;;;41.42;18.35;;;;;;;5.45;93.11;98147.19;5086128;28;20051;-61
2020/12/19 02:42:51;;;;;;;50.58;19.92;;;;;;;5.44;92.61;98148.28;5084233;28;20078;-62
2020/12/19 02:45:16;;;;;;;42.50;18.80;;;;;;;5.35;92.13;98141.91;5084140;28;20036;-61
2020/12/19 02:47:41;;;;;;;51.13;19.30;;;;;;;5.09;92.24;98086.75;5086236;28;20036;-63
2020/12/19 02:50:07;;;;;;;40.47;16.85;;;;;;;5.04;91.78;98083.31;5083786;28;20603;-61
2020/12/19 02:52:33;;;;;;;47.60;18.73;;;;;;;5.21;92.56;98114.50;5085495;28;20056;-61
2020/12/19 02:54:58;;;;;;;49.13;22.48;;;;;;;5.30;92.77;98144.75;5085582;28;20494;-61
2020/12/19 02:57:24;;;;;;;50.17;21.58;;;;;;;5.05;92.64;98090.41;5084079;28;20123;-61
2020/12/19 02:59:50;;;;;;;56.45;23.05;;;;;;;5.10;93.45;98093.06;5083761;28;20043;-61
2020/12/19 03:02:15;;;;;;;63.47;24.92;;;;;;;5.47;93.13;98144.94;5085077;28;20446;-61
2020/12/19 03:04:41;;;;;;;48.75;20.45;;;;;;;5.44;93.26;98156.53;5085641;28;20074;-62
2020/12/19 03:07:07;;;;;;;48.47;20.35;;;;;;;5.16;92.83;98100.88;5084912;28;20479;-62
2020/12/19 03:09:32;;;;;;;44.15;18.77;;;;;;;5.22;92.55;98113.34;5085394;28;20044;-61
2020/12/19 03:11:58;;;;;;;62.53;25.52;;;;;;;4.79;92.22;98018.00;5084990;28;20024;-62
2020/12/19 03:14:23;;;;;;;83.28;38.53;;;;;;;5.38;91.21;98124.81;5085144;28;20526;-61
2020/12/19 03:16:49;;;;;;;60.95;28.58;;;;;;;4.86;92.04;98040.34;5085245;28;20472;-61
2020/12/19 03:19:14;;;;;;;63.55;24.30;;;;;;;5.10;92.02;98084.81;5082885;28;20032;-61
2020/12/19 03:21:39;;;;;;;45.50;17.52;;;;;;;5.29;91.47;98121.16;5084813;28;20108;-61
2020/12/19 03:24:05;;;;;;;54.90;21.88;;;;;;;4.62;92.01;98015.91;5083362;28;20131;-61
2020/12/19 03:26:31;;;;;;;43.85;18.42;;;;;;;5.21;91.09;98103.50;5085115;28;20028;-60
2020/12/19 03:28:56;;;;;;;30.98;13.82;;;;;;;5.44;91.73;98156.53;5085423;28;20062;-62
2020/12/19 03:31:22;;;;;;;35.35;15.98;;;;;;;5.02;93.12;98105.59;5084821;28;20028;-62
2020/12/19 03:33:47;;;;;;;43.10;18.10;;;;;;;4.68;93.28;98042.91;5084777;28;20077;-61
2020/12/19 03:36:13;;;;;;;38.08;16.42;;;;;;;5.12;94.07;98121.03;5085228;28;20024;-61
2020/12/19 03:38:38;;;;;;;34.80;14.75;;;;;;;5.21;94.53;98143.88;5083197;28;20490;-61
2020/12/19 03:41:04;;;;;;;42.38;14.48;;;;;;;4.84;94.25;98087.31;5084793;28;20482;-61
2020/12/19 03:43:29;;;;;;;37.97;14.38;;;;;;;5.27;94.74;98156.38;5084619;28;20516;-62
2020/12/19 03:45:54;;;;;;;42.15;14.90;;;;;;;5.19;95.11;98138.69;5083201;28;20040;-61
2020/12/19 03:48:20;;;;;;;41.63;15.23;;;;;;;5.18;95.30;98142.56;5084546;28;20028;-61
2020/12/19 03:50:46;;;;;;;40.63;14.20;;;;;;;4.41;95.96;98067.66;5082589;28;20138;-62
2020/12/19 03:53:11;;;;;;;44.42;15.02;;;;;;;5.09;96.28;98154.59;5084326;28;20044;-62
2020/12/19 03:55:36;;;;;;;49.10;15.77;;;;;;;4.60;96.70;98064.78;5084772;28;20119;-62
2020/12/19 03:58:02;;;;;;;44.85;16.17;;;;;;;4.57;98.85;98137.53;5084416;28;20024;-62
2020/12/19 04:00:27;;;;;;;50.03;16.30;;;;;;;4.43;98.82;98098.34;5077294;28;20075;-60
2020/12/19 04:02:53;;;;;;;46.90;17.67;;;;;;;3.89;99.16;98065.38;5062545;28;20478;-62
2020/12/19 04:05:18;;;;;;;42.17;16.80;;;;;;;4.69;99.30;98162.53;5079653;28;20039;-61
2020/12/19 04:07:44;;;;;;;48.90;16.83;;;;;;;3.81;100.00;98030.47;5062853;28;20036;-62
2020/12/19 04:10:09;;;;;;;46.92;17.48;;;;;;;4.60;100.00;98160.81;5064363;28;20426;-60
2020/12/19 04:12:36;;;;;;;46.38;15.63;;;;;;;4.34;100.00;98138.56;5064208;28;20027;-60
2020/12/19 04:15:07;;;;;;;44.45;15.43;;;;;;;4.21;100.00;98166.78;5064436;28;20467;-60
2020/12/19 04:17:33;;;;;;;53.45;17.75;;;;;;;4.24;100.00;98177.13;5062831;28;20067;-60
2020/12/19 04:19:59;;;;;;;51.08;18.83;;;;;;;4.05;100.00;98128.97;5079525;28;20066;-60
2020/12/19 04:22:24;;;;;;;44.30;16.83;;;;;;;4.53;100.00;98180.44;5062367;28;20036;-60
2020/12/19 04:24:50;;;;;;;55.47;18.00;;;;;;;4.40;100.00;98126.38;5064215;28;20499;-61
2020/12/19 04:27:15;;;;;;;55.55;17.20;;;;;;;4.07;100.00;98132.22;5063981;28;20110;-61
2020/12/19 04:29:41;;;;;;;55.80;17.38;;;;;;;3.82;100.00;98130.75;5063997;28;20040;-60
2020/12/19 04:32:06;;;;;;;50.53;18.13;;;;;;;4.17;100.00;98149.28;5067950;28;20052;-60
2020/12/19 04:34:32;;;;;;;65.90;18.58;;;;;;;4.11;100.00;98161.47;5068346;28;20572;-61
2020/12/19 04:36:57;;;;;;;55.05;18.67;;;;;;;3.93;100.00;98143.16;5068281;28;20481;-59
2020/12/19 04:39:22;;;;;;;58.40;18.77;;;;;;;3.99;100.00;98174.84;5083270;28;20477;-61
2020/12/19 04:41:48;;;;;;;57.75;18.98;;;;;;;4.32;100.00;98183.84;5066142;28;20530;-61
2020/12/19 04:44:15;;;;;;;59.58;18.88;;;;;;;4.17;100.00;98130.09;5066806;28;20060;-61
2020/12/19 04:46:43;;;;;;;59.95;20.25;;;;;;;4.60;100.00;98180.84;5067878;28;20038;-62
2020/12/19 04:49:09;;;;;;;50.50;17.10;;;;;;;3.86;100.00;98038.59;5067952;28;20040;-62
2020/12/19 04:51:36;;;;;;;71.00;24.13;;;;;;;4.34;100.00;98110.31;5067480;28;20131;-61
2020/12/19 04:54:03;;;;;;;62.80;23.13;;;;;;;4.52;100.00;98123.13;5066288;28;20037;-61
2020/12/19 04:56:29;;;;;;;85.68;32.28;;;;;;;5.12;100.00;98192.44;5101300;28;20119;-61
2020/12/19 04:58:57;;;;;;;70.90;22.80;;;;;;;4.82;100.00;98135.41;5087753;28;20024;-60
2020/12/19 05:01:22;;;;;;;58.85;19.55;;;;;;;4.48;98.60;98079.03;5087419;28;20087;-61
2020/12/19 05:03:49;;;;;;;52.42;18.27;;;;;;;5.07;99.91;98176.03;5087449;28;20028;-61
2020/12/19 05:06:23;;;;;;;55.03;17.75;;;;;;;4.76;98.31;98111.94;5085913;28;20047;-62
2020/12/19 05:08:49;;;;;;;50.78;15.52;;;;;;;4.85;100.00;98189.69;5087488;28;20558;-63
2020/12/19 05:11:15;;;;;;;59.65;18.08;;;;;;;4.52;100.00;98178.78;5087420;28;20088;-62
2020/12/19 05:13:43;;;;;;;58.10;17.90;;;;;;;3.23;100.00;98067.63;5087518;28;20032;-59
2020/12/19 05:16:13;;;;;;;53.38;18.13;;;;;;;4.61;100.00;98182.47;5085745;28;20032;-61
2020/12/19 05:18:39;;;;;;;54.80;18.17;;;;;;;3.46;100.00;98042.09;5087199;28;20032;-62
2020/12/19 05:21:06;;;;;;;59.17;17.67;;;;;;;4.21;100.00;98196.94;5086679;28;20036;-60
2020/12/19 05:23:34;;;;;;;66.80;20.85;;;;;;;3.93;100.00;98136.88;5087259;28;20039;-62
2020/12/19 05:26:01;;;;;;;74.22;19.90;;;;;;;4.26;100.00;98141.19;5087268;28;20035;-61
2020/12/19 05:28:27;;;;;;;61.92;19.50;;;;;;;4.42;100.00;98165.28;5085679;28;20407;-61
2020/12/19 05:30:52;;;;;;;64.20;17.92;;;;;;;4.61;100.00;98196.22;5087060;28;20112;-60
2020/12/19 05:33:19;;;;;;;55.47;19.30;;;;;;;4.83;100.00;98195.50;5087142;28;20046;-60
2020/12/19 05:35:45;;;;;;;54.65;17.38;;;;;;;4.72;100.00;98171.28;5087072;28;20127;-61
2020/12/19 05:38:10;;;;;;;61.58;20.13;;;;;;;4.68;100.00;98197.72;5087145;28;20161;-61
2020/12/19 05:40:38;;;;;;;57.53;19.10;;;;;;;4.69;100.00;98195.47;5085659;28;20036;-60
2020/12/19 05:43:04;;;;;;;55.28;18.65;;;;;;;4.96;100.00;98211.16;5086042;28;20043;-60
2020/12/19 05:45:30;;;;;;;62.97;19.80;;;;;;;4.92;100.00;98203.81;5086785;28;20085;-60
2020/12/19 05:47:56;;;;;;;66.43;19.90;;;;;;;4.75;100.00;98182.47;5086971;28;20063;-60
2020/12/19 05:50:23;;;;;;;60.58;19.35;;;;;;;5.09;99.90;98221.28;5086940;28;20039;-60
2020/12/19 05:52:49;;;;;;;58.15;19.33;;;;;;;4.89;100.00;98182.47;5086982;28;20048;-60
2020/12/19 05:55:17;;;;;;;62.78;20.23;;;;;;;5.22;99.33;98219.66;5085228;28;20445;-59
2020/12/19 05:57:42;;;;;;;63.45;17.88;;;;;;;5.12;99.62;98231.66;5086692;28;20032;-59
2020/12/19 06:00:17;;;;;;;54.33;18.85;;;;;;;5.16;100.00;98232.69;5076990;28;20032;-59
2020/12/19 06:02:44;;;;;;;62.78;18.70;;;;;;;5.02;99.61;98190.69;5066320;28;20119;-59
2020/12/19 06:05:15;;;;;;;55.33;18.33;;;;;;;5.30;99.10;98232.66;5066473;28;20082;-60
2020/12/19 06:07:42;;;;;;;56.28;18.73;;;;;;;5.39;98.09;98236.34;5066389;28;20028;-60
2020/12/19 06:10:10;;;;;;;67.05;20.40;;;;;;;5.41;97.41;98240.38;5066454;28;20124;-60
2020/12/19 06:13:14;;;;;;;59.00;19.83;;;;;;;5.54;95.88;98246.97;5064908;28;20025;-61
2020/12/19 06:16:01;;;;;;;71.13;20.10;;;;;;;5.28;95.94;98218.44;5066572;28;20044;-61
2020/12/19 06:18:48;;;;;;;63.80;20.23;;;;;;;5.57;95.84;98243.63;5066017;28;20033;-61
2020/12/19 06:21:14;;;;;;;67.43;23.52;;;;;;;5.42;95.63;98221.97;5066058;28;20047;-61
2020/12/19 06:23:41;;;;;;;77.90;23.55;;;;;;;5.62;95.68;98262.75;5064819;28;20032;-61
2020/12/19 06:26:09;;;;;;;75.97;23.98;;;;;;;5.18;95.74;98180.19;5065848;28;20127;-60
2020/12/19 06:28:45;;;;;;;71.13;24.52;;;;;;;5.73;95.06;98253.16;5065666;28;20040;-61
2020/12/19 06:31:14;;;;;;;86.85;27.73;;;;;;;5.73;94.12;98242.16;5065695;28;20029;-61
2020/12/19 06:33:42;;;;;;;71.28;22.35;;;;;;;5.81;93.66;98260.66;5065654;28;20458;-62
2020/12/19 06:36:29;;;;;;;60.13;21.73;;;;;;;5.48;92.96;98196.00;5065843;28;20710;-59
2020/12/19 06:38:57;;;;;;;63.13;21.73;;;;;;;5.75;93.89;98261.91;5065769;28;20085;-60
2020/12/19 06:41:42;;;;;;;65.47;20.42;;;;;;;5.82;94.60;98257.63;5063687;28;20093;-59
2020/12/19 06:44:32;;;;;;;69.47;22.55;;;;;;;5.81;94.82;98266.16;5064046;28;20039;-59
2020/12/19 06:47:18;;;;;;;62.20;20.38;;;;;;;5.70;93.56;98224.34;5065248;28;20074;-61
2020/12/19 06:49:52;;;;;;;54.05;18.63;;;;;;;5.97;92.62;98264.72;5063333;28;20041;-62
2020/12/19 06:52:21;;;;;;;61.13;19.92;;;;;;;5.64;92.52;98214.56;5064667;28;20493;-60
2020/12/19 06:54:48;;;;;;;55.03;17.65;;;;;;;5.76;93.29;98247.03;5068661;28;20756;-61
2020/12/19 06:57:31;;;;;;;56.10;18.27;;;;;;;5.91;93.88;98265.97;5085458;28;20089;-61
2020/12/19 07:00:16;;;;;;;52.63;19.30;;;;;;;5.91;93.25;98254.97;5085584;28;20093;-61
2020/12/19 07:02:56;;;;;;;71.03;19.90;;;;;;;5.87;93.75;98264.94;5083781;28;20099;-60
2020/12/19 07:05:24;;;;;;;57.70;19.70;;;;;;;5.89;93.54;98262.72;5083684;28;20028;-60
2020/12/19 07:07:51;;;;;;;67.40;20.35;;;;;;;5.83;92.87;98244.72;5085113;28;20031;-62
2020/12/19 07:10:35;;;;;;;65.13;20.65;;;;;;;5.76;93.89;98233.28;5084558;28;20038;-61
2020/12/19 07:13:01;;;;;;;56.22;21.55;;;;;;;5.72;94.01;98246.03;5078310;28;20036;-59
2020/12/19 07:15:49;;;;;;;68.45;22.73;;;;;;;5.90;93.87;98294.56;5065369;28;20040;-60
2020/12/19 07:18:32;;;;;;;60.60;20.08;;;;;;;5.63;93.14;98187.41;5070241;28;20028;-60
2020/12/19 07:21:06;;;;;;;64.97;22.02;;;;;;;5.93;93.36;98237.03;5081386;28;20059;-58
2020/12/19 07:23:33;;;;;;;66.25;20.70;;;;;;;5.86;95.06;98263.34;5083419;28;20060;-60
2020/12/19 07:25:59;;;;;;;64.68;20.13;;;;;;;5.75;94.84;98239.91;5070371;28;20040;-61
2020/12/19 07:28:24;;;;;;;70.15;21.60;;;;;;;5.20;94.04;98161.50;5066672;28;20395;-61
2020/12/19 07:30:50;;;;;;;67.68;21.60;;;;;;;3.78;95.62;97987.22;5079181;28;20050;-59
2020/12/19 07:33:17;;;;;;;64.45;20.88;;;;;;;5.48;95.68;98250.97;5081649;28;20094;-63
2020/12/19 07:35:43;;;;;;;61.75;22.30;;;;;;;5.31;94.73;98190.34;5064186;28;20064;-61
2020/12/19 07:38:08;;;;;;;59.38;21.15;;;;;;;5.69;92.94;98227.41;5075206;28;20451;-61
2020/12/19 07:40:34;;;;;;;58.47;22.30;;;;;;;5.74;93.26;98254.75;5084074;28;20047;-63
2020/12/19 07:43:08;;;;;;;59.95;22.67;;;;;;;6.05;91.71;98266.72;5082830;28;20118;-60
2020/12/19 07:45:35;;;;;;;65.47;23.48;;;;;;;5.72;93.44;98246.03;5084131;28;20131;-59
2020/12/19 07:48:01;;;;;;;64.38;23.08;;;;;;;5.61;96.30;98272.13;5077985;28;20032;-59
2020/12/19 07:50:29;;;;;;;68.03;26.00;;;;;;;5.39;95.44;98193.16;5075646;28;20070;-60
2020/12/19 07:53:08;;;;;;;58.63;23.70;;;;;;;5.03;94.60;98120.94;5068465;28;20128;-60
2020/12/19 07:55:35;;;;;;;59.38;22.77;;;;;;;6.08;92.84;98274.34;5083199;28;20051;-57
2020/12/19 07:58:02;;;;;;;75.03;27.55;;;;;;;5.77;94.30;98218.44;5067714;28;20035;-60
2020/12/19 08:00:28;;;;;;;67.05;25.85;;;;;;;5.89;93.58;98236.03;2735923;28;10001993;-58
2020/12/19 08:02:54;;;;;;;68.10;26.38;;;;;;;5.81;94.34;98227.66;5076688;28;20044;-59
2020/12/19 08:05:20;;;;;;;70.10;26.20;;;;;;;5.35;94.27;98130.91;5074775;28;20560;-61
2020/12/19 08:07:51;;;;;;;57.10;21.55;;;;;;;6.27;93.08;98261.25;5064473;28;20053;-58
2020/12/19 08:10:16;;;;;;;58.60;24.05;;;;;;;6.31;92.64;98253.19;5063743;28;20055;-60
2020/12/19 08:12:42;;;;;;;56.15;22.45;;;;;;;6.33;90.96;98240.72;5026773;28;20036;-61
2020/12/19 08:15:19;;;;;;;53.90;23.08;;;;;;;6.41;89.70;98258.41;5061513;28;20040;-60
2020/12/19 08:17:53;;;;;;;64.63;25.15;;;;;;;6.45;89.84;98260.22;5075050;28;20028;-58
2020/12/19 08:20:20;;;;;;;;;;;;;;;6.62;89.65;98254.03;5098148;28;20047;-60
2020/12/19 08:22:47;;;;;;;56.92;22.50;;;;;;;6.61;88.67;98242.19;5090716;28;20287;-59
2020/12/19 08:25:13;;;;;;;79.13;33.65;;;;;;;6.51;87.86;98225.94;5083261;28;20510;-60
2020/12/19 08:27:43;;;;;;;66.60;28.52;;;;;;;6.60;87.56;98224.06;5082069;28;20031;-56
2020/12/19 08:30:24;;;;;;;67.10;28.60;;;;;;;6.89;87.63;98262.91;5079530;28;20563;-56
2020/12/19 08:32:58;;;;;;;62.22;27.88;;;;;;;6.95;86.91;98256.16;5068865;28;20024;-57
2020/12/19 08:35:39;;;;;;;73.10;29.38;;;;;;;7.00;86.99;98253.22;5064783;28;20033;-59
2020/12/19 08:38:15;;;;;;;63.67;30.02;;;;;;;7.14;86.11;98256.72;5073613;28;20036;-57
2020/12/19 08:40:42;;;;;;;72.40;32.15;;;;;;;6.95;84.40;98236.03;5063790;28;20097;-60
2020/12/19 08:43:10;;;;;;;58.55;26.50;;;;;;;7.10;82.67;98260.41;5064986;28;20131;-60
2020/12/19 08:45:37;;;;;;;64.80;28.20;;;;;;;6.22;82.51;98134.81;5080266;28;20080;-58
2020/12/19 08:48:20;;;;;;;105.15;59.33;;;;;;;7.07;83.30;98261.03;5083019;28;20079;-59
2020/12/19 08:50:47;;;;;;;46.90;22.77;;;;;;;6.86;82.25;98222.22;5081924;28;20060;-59
2020/12/19 08:53:26;;;;;;;89.60;42.80;;;;;;;6.86;81.95;98271.78;5083912;28;20523;-58
2020/12/19 08:55:53;;;;;;;48.83;23.05;;;;;;;6.82;81.99;98215.75;5084409;28;20070;-60
2020/12/19 08:58:26;;;;;;;67.90;33.67;;;;;;;7.21;80.13;98246.03;5084020;28;20028;-58
2020/12/19 09:00:54;;;;;;;52.95;23.67;;;;;;;6.96;80.33;98221.94;5083696;28;20046;-59
2020/12/19 09:03:27;;;;;;;51.72;24.38;;;;;;;7.17;79.54;98261.59;5084056;28;20028;-59
2020/12/19 09:06:03;;;;;;;49.80;23.35;;;;;;;7.15;80.27;98236.28;5082468;28;20088;-59
2020/12/19 09:08:40;;;;;;;46.13;21.90;;;;;;;7.06;80.27;98234.63;5083902;28;20036;-59
2020/12/19 09:11:22;;;;;;;48.90;22.60;;;;;;;1.60;81.57;97388.59;5082003;28;20421;-58
2020/12/19 09:13:48;;;;;;;48.72;21.00;;;;;;;6.73;81.46;98217.66;5083246;28;20064;-59
2020/12/19 09:16:13;;;;;;;46.28;20.27;;;;;;;6.78;82.81;98228.50;5083535;28;20062;-58
2020/12/19 09:18:40;;;;;;;43.58;19.05;;;;;;;6.96;80.94;98221.94;5085232;28;20032;-59
2020/12/19 09:21:07;;;;;;;41.83;18.48;;;;;;;6.59;81.07;98178.38;5087411;28;20044;-59
2020/12/19 09:23:33;;;;;;;34.45;16.25;;;;;;;5.90;85.19;98181.84;5087222;28;20105;-60
2020/12/19 09:26:00;;;;;;;38.97;17.38;;;;;;;5.88;85.36;98153.88;5085707;28;20517;-59
2020/12/19 09:28:26;;;;;;;40.05;16.73;;;;;;;5.29;85.34;98099.19;5085609;28;20028;-60
2020/12/19 09:30:54;;;;;;;40.45;18.60;;;;;;;6.20;86.03;98210.53;5086925;28;20043;-59
2020/12/19 09:33:19;;;;;;;36.78;15.88;;;;;;;5.73;86.43;98214.66;5085623;28;20028;-59
2020/12/19 09:35:46;;;;;;;32.95;15.35;;;;;;;5.43;89.10;98204.38;5087126;28;20097;-59
2020/12/19 09:38:12;;;;;;;39.45;18.35;;;;;;;5.69;89.06;98205.44;5087023;28;20035;-60
2020/12/19 09:40:38;;;;;;;36.53;15.60;;;;;;;5.42;89.47;98202.75;5087295;28;20036;-58
2020/12/19 09:43:04;;;;;;;36.25;16.45;;;;;;;5.36;89.94;98160.03;5086959;28;20036;-58
2020/12/19 09:45:29;;;;;;;39.88;16.05;;;;;;;5.47;87.50;98133.94;5087344;28;20043;-59
2020/12/19 09:47:56;;;;;;;44.50;18.83;;;;;;;6.11;86.11;98204.97;5086948;28;20391;-60
2020/12/19 09:50:22;;;;;;;39.80;19.15;;;;;;;6.31;85.08;98195.41;5084915;28;20553;-59
2020/12/19 09:52:48;;;;;;;31.02;12.45;;;;;;;5.34;87.92;98185.03;5086586;28;20040;-59
2020/12/19 09:55:14;;;;;;;36.35;14.35;;;;;;;5.52;89.42;98202.50;5086870;28;20036;-59
2020/12/19 09:57:39;;;;;;;33.70;15.02;;;;;;;5.07;90.91;98168.63;5086892;28;20035;-59
2020/12/19 10:00:06;;;;;;;36.70;17.05;;;;;;;4.86;90.46;98137.22;5086534;28;20051;-59
2020/12/19 10:02:32;;;;;;;42.53;18.50;;;;;;;4.73;91.03;98090.59;5085024;28;20127;-59
2020/12/19 10:04:57;;;;;;;35.70;17.13;;;;;;;5.45;89.30;98191.13;5084798;28;20028;-59
2020/12/19 10:07:23;;;;;;;35.85;17.08;;;;;;;5.39;89.95;98162.16;5086253;28;20422;-60
2020/12/19 10:09:48;;;;;;;30.65;15.85;;;;;;;5.28;88.42;98152.53;5086361;28;20028;-59
2020/12/19 10:12:14;;;;;;;41.38;16.50;;;;;;;5.36;90.05;98187.50;5086251;28;20096;-59
2020/12/19 10:14:39;;;;;;;41.30;21.23;;;;;;;5.54;90.17;98170.03;5086246;28;20059;-60
2020/12/19 10:17:05;;;;;;;40.83;21.05;;;;;;;5.91;88.89;98188.97;5086217;28;20028;-57
2020/12/19 10:19:30;;;;;;;31.55;14.98;;;;;;;5.69;87.01;98166.94;5086065;28;20031;-59
2020/12/19 10:21:56;;;;;;;38.58;16.67;;;;;;;5.44;89.30;98173.00;5085588;28;20032;-59
2020/12/19 10:24:22;;;;;;;30.85;16.50;;;;;;;5.16;88.60;98111.84;5084363;28;20113;-59
2020/12/19 10:26:48;;;;;;;32.22;16.00;;;;;;;4.84;88.33;98042.59;5085731;28;20097;-59
2020/12/19 10:29:14;;;;;;;33.80;16.10;;;;;;;5.79;88.19;98181.25;5083990;28;20063;-59
2020/12/19 10:31:39;;;;;;;35.60;16.45;;;;;;;6.11;87.05;98172.78;5085293;28;20419;-59
2020/12/19 10:34:05;;;;;;;31.40;16.35;;;;;;;5.81;85.87;98139.69;5086108;28;20031;-58
2020/12/19 10:36:31;;;;;;;32.25;13.98;;;;;;;5.77;86.25;98166.19;5085474;28;20032;-58
2020/12/19 10:38:57;;;;;;;34.50;15.25;;;;;;;5.87;87.55;98166.78;5086055;28;20031;-59
2020/12/19 10:41:23;;;;;;;36.63;15.57;;;;;;;6.04;85.34;98144.91;5085481;28;20059;-58
2020/12/19 10:43:49;;;;;;;32.00;15.55;;;;;;;6.09;84.72;98175.03;5085366;28;20032;-59
2020/12/19 10:46:20;;;;;;;33.40;15.60;;;;;;;6.12;84.41;98146.06;5085076;28;20516;-59
2020/12/19 10:48:45;;;;;;;27.98;15.23;;;;;;;5.56;85.75;98086.19;5085950;28;20042;-58
2020/12/19 10:51:11;;;;;;;31.52;15.77;;;;;;;5.87;85.00;98094.47;5085005;28;20039;-60
2020/12/19 10:53:36;;;;;;;31.05;15.25;;;;;;;6.13;83.02;98131.22;5085304;28;20127;-58
2020/12/19 10:56:02;;;;;;;31.95;15.77;;;;;;;6.13;82.86;98099.00;5087624;28;20431;-58
2020/12/19 10:58:27;;;;;;;30.95;14.73;;;;;;;6.44;81.27;98143.00;5083861;28;20156;-58
2020/12/19 11:00:52;;;;;;;36.42;15.38;;;;;;;6.26;81.53;98122.03;5083959;28;20033;-60
2020/12/19 11:03:18;;;;;;;29.00;14.13;;;;;;;6.27;82.07;98107.16;5085141;28;20521;-59
2020/12/19 11:05:43;;;;;;;29.83;14.68;;;;;;;4.83;80.15;97854.31;5083616;28;20035;-59
2020/12/19 11:08:08;;;;;;;29.00;15.63;;;;;;;6.30;80.48;98103.78;5083942;28;20028;-58
2020/12/19 11:10:34;;;;;;;25.08;12.85;;;;;;;6.01;80.78;98089.72;5083480;28;20122;-59
2020/12/19 11:13:03;;;;;;;28.75;13.77;;;;;;;4.31;83.90;97895.09;5084958;28;20036;-59
2020/12/19 11:15:32;;;;;;;30.42;13.82;;;;;;;5.92;83.77;98121.84;5084593;28;20028;-58
2020/12/19 11:17:58;;;;;;;34.42;16.25;;;;;;;6.06;84.11;98152.84;5084884;28;20111;-58
2020/12/19 11:20:23;;;;;;;26.38;13.35;;;;;;;6.16;83.03;98125.06;5083226;28;20558;-57
2020/12/19 11:22:49;;;;;;;30.85;15.50;;;;;;;6.43;82.13;98140.56;5083451;28;20039;-59
2020/12/19 11:25:15;;;;;;;30.95;14.45;;;;;;;6.17;81.91;98093.69;5084701;28;20494;-57
2020/12/19 11:27:41;;;;;;;35.20;16.35;;;;;;;6.02;81.19;98052.84;5083701;28;20032;-58